Time;durP1;ratioP1;P1;durP2;ratioP2;P2;SDS_P1;SDS_P2;PMS_P1;PMS_P2;Temp;Humidity;BMP_temperature;BMP_pressure;BME280_temperature;BME280_humidity;BME280_pressure;Samples;Min_cycle;Max_cycle;Signal;HPM_P1;HPM_P2
2022/05/16 00:01:20;;;;;;;4.35;3.13;;;20.90;38.90;;;21.00;35.55;97551.94;5026775;28;20053;-37
2022/05/16 00:03:48;;;;;;;3.38;2.63;;;20.90;39.10;;;21.00;35.76;97549.22;5026144;28;20045;-37
2022/05/16 00:06:16;;;;;;;3.25;2.35;;;20.80;39.40;;;20.93;36.06;97534.94;5027088;28;20049;-37
2022/05/16 00:08:43;;;;;;;2.97;2.08;;;20.80;39.60;;;20.91;35.99;97537.06;5026436;28;20071;-36
2022/05/16 00:11:11;;;;;;;2.95;2.33;;;20.60;39.80;;;20.88;35.94;97542.09;5025918;28;20060;-37
2022/05/16 00:13:39;;;;;;;3.17;2.47;;;20.60;39.80;;;20.85;36.08;97532.59;5026043;28;20054;-37
2022/05/16 00:16:07;;;;;;;3.63;2.42;;;20.60;39.80;;;20.85;36.41;97533.41;5025259;28;20051;-37
2022/05/16 00:18:37;;;;;;;2.67;2.25;;;20.70;40.00;;;20.79;36.20;97523.50;5027227;28;20358;-37
2022/05/16 00:21:04;;;;;;;8.43;2.58;;;20.60;39.90;;;20.81;36.39;97525.97;5026493;28;20063;-37
2022/05/16 00:23:32;;;;;;;3.20;2.30;;;20.60;40.10;;;20.69;36.83;97523.22;5026569;28;20071;-36
2022/05/16 00:26:00;;;;;;;2.92;2.50;;;20.60;40.10;;;20.64;36.68;97529.31;5027150;28;20075;-36
2022/05/16 00:28:28;;;;;;;2.97;2.10;;;20.60;40.00;;;20.61;36.73;97516.25;5024803;28;20059;-36
2022/05/16 00:30:56;;;;;;;3.70;2.08;;;20.60;40.20;;;20.60;37.18;97530.00;5026671;28;20473;-36
2022/05/16 00:33:24;;;;;;;3.50;2.30;;;20.50;40.60;;;20.58;37.16;97526.69;5027107;28;20472;-36
2022/05/16 00:35:52;;;;;;;3.42;2.38;;;20.50;40.80;;;20.58;37.45;97518.56;5026383;28;20049;-36
2022/05/16 00:38:21;;;;;;;3.45;2.60;;;20.40;41.00;;;20.50;37.27;97514.28;5027216;28;20038;-36
2022/05/16 00:40:49;;;;;;;3.13;2.65;;;20.40;41.00;;;20.46;37.27;97513.09;5027200;28;20053;-36
2022/05/16 00:43:42;;;;;;;5.38;2.40;;;20.40;41.00;;;20.49;37.58;97511.81;5026035;28;20057;-36
2022/05/16 00:46:10;;;;;;;5.57;2.30;;;20.40;41.60;;;20.49;37.38;97511.81;5025078;28;20051;-36
2022/05/16 00:48:38;;;;;;;4.43;2.95;;;20.40;41.00;;;20.47;37.38;97514.72;5024346;28;20053;-36
2022/05/16 00:51:14;;;;;;;4.10;2.92;;;20.40;41.10;;;20.42;37.54;97510.03;5026596;28;20257;-37
2022/05/16 00:53:43;;;;;;;3.72;2.40;;;20.40;41.40;;;20.44;37.52;97502.50;5025428;28;20045;-37
2022/05/16 00:56:11;;;;;;;4.45;2.50;;;20.40;40.90;;;20.48;37.44;97494.78;5025779;28;20049;-37
2022/05/16 00:58:41;;;;;;;5.03;2.80;;;20.40;40.90;;;20.52;37.20;97503.25;5027373;28;20255;-37
2022/05/16 01:06:45;;;;;;;3.90;2.38;;;20.40;40.90;;;20.49;37.48;97501.84;5026667;28;20377;-37
2022/05/16 01:09:13;;;;;;;3.10;2.65;;;20.40;40.90;;;20.50;37.47;97489.13;5025742;28;20057;-37
2022/05/16 01:11:41;;;;;;;2.78;2.20;;;20.50;41.00;;;20.54;37.35;97493.03;5026675;28;20053;-37
2022/05/16 01:14:08;;;;;;;3.90;2.90;;;20.50;41.10;;;20.57;37.51;97497.97;5026430;28;20059;-37
2022/05/16 01:16:36;;;;;;;5.22;2.70;;;20.40;41.00;;;20.56;37.47;97491.75;5026111;28;20053;-37
2022/05/16 01:19:04;;;;;;;5.47;2.40;;;20.40;41.10;;;20.51;37.47;97504.28;5026544;28;20530;-37
2022/05/16 01:21:38;;;;;;;2.80;2.50;;;20.40;41.20;;;20.53;37.48;97515.69;5026093;28;20068;-37
2022/05/16 01:24:13;;;;;;;4.03;2.47;;;20.40;41.60;;;20.51;37.54;97520.53;5026125;28;20217;-37
2022/05/16 01:26:41;;;;;;;2.97;2.13;;;20.20;42.10;;;20.44;37.73;97516.03;5029931;28;20351;-37
2022/05/16 01:29:10;;;;;;;2.83;2.50;;;20.10;42.30;;;20.43;38.04;97510.84;5029592;28;20072;-37
2022/05/16 01:31:38;;;;;;;5.35;2.42;;;20.00;42.50;;;20.41;38.28;97515.66;5029660;28;20076;-37
2022/05/16 01:34:05;;;;;;;4.32;2.92;;;20.00;43.00;;;20.33;38.41;97507.84;5029431;28;20369;-37
2022/05/16 01:36:34;;;;;;;4.03;2.78;;;19.90;43.50;;;20.27;38.56;97506.88;5031107;28;20053;-37
2022/05/16 01:39:03;;;;;;;4.63;2.20;;;19.80;43.70;;;20.25;38.66;97501.69;5029916;28;20064;-37
2022/05/16 01:41:31;;;;;;;2.45;2.25;;;19.80;44.10;;;20.22;38.67;97495.91;5029694;28;20049;-37
2022/05/16 01:44:01;;;;;;;3.35;3.05;;;19.80;44.10;;;20.18;39.02;97500.13;5029247;28;20060;-37
2022/05/16 01:46:35;;;;;;;3.75;2.25;;;19.70;44.50;;;20.15;38.99;97504.13;5030419;28;20068;-37
2022/05/16 01:49:06;;;;;;;4.00;2.50;;;19.70;44.50;;;20.13;39.17;97494.59;5029436;28;20056;-37
2022/05/16 01:51:35;;;;;;;2.83;2.33;;;19.70;44.70;;;20.09;39.19;97493.41;5028663;28;20391;-37
2022/05/16 01:54:05;;;;;;;4.15;3.25;;;19.70;44.70;;;20.03;39.11;97490.53;5029225;28;20059;-37
2022/05/16 01:56:37;;;;;;;3.47;2.60;;;19.60;44.60;;;20.00;39.40;97492.84;5029287;28;20221;-36
2022/05/16 01:59:06;;;;;;;3.33;2.53;;;19.60;45.30;;;19.97;39.42;97488.75;5029296;28;20045;-37
2022/05/16 02:01:34;;;;;;;4.10;3.20;;;19.50;45.00;;;19.94;39.53;97499.16;5028930;28;20050;-37
2022/05/16 02:04:02;;;;;;;4.80;3.08;;;19.50;45.10;;;19.88;39.57;97502.78;5028551;28;20068;-37
2022/05/16 02:06:31;;;;;;;3.17;2.45;;;19.40;45.20;;;19.82;39.82;97496.38;5029575;28;20336;-37
2022/05/16 02:08:59;;;;;;;2.92;2.72;;;19.30;45.50;;;19.74;40.24;97496.69;5028146;28;20259;-37
2022/05/16 02:11:27;;;;;;;2.97;2.30;;;19.20;46.20;;;19.68;40.28;97496.50;5028402;28;20068;-37
2022/05/16 02:13:55;;;;;;;4.28;3.50;;;19.10;46.30;;;19.65;40.35;97493.41;5029294;28;20241;-36
2022/05/16 02:16:23;;;;;;;3.50;2.75;;;19.10;46.60;;;19.60;40.51;97498.63;5027873;28;20060;-37
2022/05/16 02:18:50;;;;;;;3.95;2.67;;;19.10;46.40;;;19.60;40.62;97498.63;5028693;28;20049;-37
2022/05/16 02:26:51;;;;;;;6.32;2.45;;;19.20;46.50;;;19.44;41.09;97494.63;5028817;28;20056;-36
2022/05/16 02:29:19;;;;;;;3.47;2.90;;;19.20;46.50;;;19.41;41.19;97500.50;5029246;28;20053;-36
2022/05/16 02:31:47;;;;;;;3.88;3.25;;;19.20;47.20;;;19.37;41.56;97494.72;5028912;28;20052;-36
2022/05/16 02:34:16;;;;;;;4.72;3.00;;;19.20;46.90;;;19.36;41.49;97490.34;5027095;28;20063;-36
2022/05/16 02:36:44;;;;;;;3.92;2.55;;;19.20;46.80;;;19.39;41.47;97486.41;5028892;28;20061;-36
2022/05/16 02:39:15;;;;;;;4.30;2.70;;;19.30;46.60;;;19.39;41.32;97495.31;5028485;28;20041;-36
2022/05/16 02:41:43;;;;;;;3.42;2.47;;;19.40;46.30;;;19.45;41.06;97499.00;5027284;28;20355;-36
2022/05/16 02:44:13;;;;;;;3.67;2.75;;;19.40;45.90;;;19.46;40.91;97498.78;5028276;28;20049;-36
2022/05/16 02:46:47;;;;;;;2.80;2.47;;;19.40;45.60;;;19.48;41.08;97504.78;5029809;28;20208;-36
2022/05/16 02:49:21;;;;;;;3.17;2.67;;;19.40;45.80;;;19.54;40.89;97505.78;5026605;28;20045;-37
2022/05/16 02:51:49;;;;;;;2.95;2.65;;;19.40;45.40;;;19.56;40.80;97508.22;5028019;28;20059;-36
2022/05/16 02:54:17;;;;;;;4.28;2.70;;;19.40;45.40;;;19.56;40.59;97503.69;5029097;28;20052;-36
2022/05/16 02:56:44;;;;;;;3.45;3.05;;;19.40;46.20;;;19.59;40.74;97519.41;5027356;28;20053;-36
2022/05/16 02:59:12;;;;;;;4.60;2.33;;;19.40;45.80;;;19.60;40.71;97526.47;5027507;28;20061;-36
2022/05/16 03:01:40;;;;;;;3.63;2.45;;;19.40;45.80;;;19.60;40.87;97526.47;5028988;28;20053;-36
2022/05/16 03:04:08;;;;;;;4.75;2.55;;;19.40;45.90;;;19.61;40.91;97525.41;5028555;28;20076;-37
2022/05/16 03:06:37;;;;;;;3.53;2.45;;;19.40;46.00;;;19.61;40.84;97525.41;5029426;28;20061;-37
2022/05/16 03:09:04;;;;;;;3.15;2.63;;;19.40;45.90;;;19.62;41.04;97526.28;5028142;28;20051;-37
2022/05/16 03:11:32;;;;;;;4.45;2.88;;;19.40;46.00;;;19.58;41.13;97531.28;5027691;28;20055;-37
2022/05/16 03:14:00;;;;;;;4.60;3.00;;;19.40;46.40;;;19.57;41.13;97535.00;5028807;28;20331;-37
2022/05/16 03:16:28;;;;;;;5.05;2.72;;;19.40;46.40;;;19.56;41.10;97530.69;5028385;28;20047;-37
2022/05/16 03:18:56;;;;;;;4.03;2.85;;;19.30;46.60;;;19.53;41.48;97533.81;5028767;28;20251;-36
2022/05/16 03:21:24;;;;;;;5.75;2.65;;;19.30;46.90;;;19.53;41.48;97533.81;5027574;28;20240;-35
2022/05/16 03:23:52;;;;;;;5.55;2.97;;;19.30;47.00;;;19.51;41.75;97529.69;5027172;28;20041;-37
2022/05/16 03:26:20;;;;;;;5.22;3.75;;;19.20;47.40;;;19.50;41.67;97523.44;5028719;28;20053;-37
2022/05/16 03:28:48;;;;;;;2.92;2.60;;;19.10;47.40;;;19.45;41.96;97534.91;5024531;28;20045;-37
2022/05/16 03:31:15;;;;;;;3.85;2.40;;;19.20;47.50;;;19.47;42.09;97543.63;5027817;28;20055;-37
2022/05/16 03:33:43;;;;;;;3.22;2.75;;;19.30;47.70;;;19.51;42.17;97532.38;5027812;28;20048;-37
2022/05/16 03:36:11;;;;;;;3.13;2.50;;;19.30;47.60;;;19.51;42.11;97532.38;5027745;28;20044;-37
2022/05/16 03:41:26;;;;;;;4.25;2.60;;;19.40;47.90;;;19.49;42.54;97516.41;5043416;28;20053;-37
2022/05/16 03:43:54;;;;;;;3.85;2.80;;;19.40;47.70;;;19.51;42.80;97541.31;5026721;28;20056;-37
2022/05/16 03:46:24;;;;;;;4.03;3.60;;;19.40;48.50;;;19.52;42.75;97520.53;5027289;28;20051;-37
2022/05/16 03:48:52;;;;;;;3.80;3.25;;;19.40;48.30;;;19.59;42.68;97524.81;5026447;28;20053;-37
2022/05/16 03:51:20;;;;;;;5.10;2.88;;;19.50;48.50;;;19.63;42.73;97520.63;5027302;28;20053;-37
2022/05/16 03:53:48;;;;;;;3.20;2.78;;;19.50;48.60;;;19.68;42.82;97525.38;5027156;28;20061;-37
2022/05/16 03:56:22;;;;;;;3.63;3.30;;;19.50;48.70;;;19.71;43.19;97526.78;5026632;28;20057;-37
2022/05/16 03:58:51;;;;;;;3.60;2.53;;;19.60;48.40;;;19.73;42.89;97532.84;5026533;28;20347;-37
2022/05/16 04:01:20;;;;;;;3.38;2.92;;;19.60;48.40;;;19.74;42.90;97534.50;5027859;28;20382;-36
2022/05/16 04:03:49;;;;;;;4.20;2.88;;;19.70;48.30;;;19.78;42.79;97539.22;5025688;28;20049;-37
2022/05/16 04:06:17;;;;;;;4.13;2.90;;;19.70;48.30;;;19.84;42.80;97546.44;5025586;28;20103;-37
2022/05/16 04:08:45;;;;;;;5.47;3.33;;;19.60;48.40;;;19.87;42.85;97550.53;5026182;28;20055;-37
2022/05/16 04:11:17;;;;;;;5.38;4.07;;;19.70;48.70;;;19.89;42.86;97550.34;5027510;28;20114;-37
2022/05/16 04:13:46;;;;;;;6.47;2.88;;;19.70;48.90;;;19.86;43.31;97548.91;5025696;28;20041;-37
2022/05/16 04:16:14;;;;;;;3.55;3.25;;;19.60;49.30;;;19.85;43.66;97549.94;5025899;28;20057;-37
2022/05/16 04:18:44;;;;;;;3.72;3.15;;;19.60;49.90;;;19.88;43.86;97559.50;5026441;28;20112;-37
2022/05/16 04:21:13;;;;;;;3.67;3.15;;;19.70;50.10;;;19.93;43.76;97552.38;5027335;28;20049;-36
2022/05/16 04:23:41;;;;;;;6.88;3.72;;;19.70;50.00;;;19.98;43.72;97557.09;5026700;28;20067;-36
2022/05/16 04:26:09;;;;;;;4.82;2.92;;;19.80;50.00;;;20.02;44.37;97555.59;5026891;28;20273;-36
2022/05/16 04:28:37;;;;;;;4.07;2.88;;;19.90;50.80;;;20.01;45.04;97560.19;5026407;28;20059;-37
2022/05/16 04:31:05;;;;;;;4.38;3.70;;;19.80;51.70;;;20.00;45.46;97563.09;5027204;28;20246;-37
2022/05/16 04:33:34;;;;;;;3.70;3.30;;;19.80;52.50;;;19.97;46.32;97563.56;5041617;28;20057;-37
2022/05/16 04:36:02;;;;;;;5.45;3.40;;;19.70;53.80;;;19.95;46.36;97563.78;5026922;28;20052;-37
2022/05/16 04:38:34;;;;;;;4.03;3.30;;;19.70;54.00;;;19.97;46.66;97567.09;5026134;28;20053;-38
2022/05/16 04:43:49;;;;;;;6.25;3.67;;;19.70;54.50;;;19.97;46.65;97568.97;5026160;28;20053;-37
2022/05/16 04:46:17;;;;;;;4.75;3.58;;;19.70;54.50;;;19.99;46.42;97575.81;5027130;28;20056;-38
2022/05/16 04:48:45;;;;;;;6.82;3.53;;;19.70;54.10;;;19.97;46.71;97580.59;5026817;28;20051;-37
2022/05/16 04:51:13;;;;;;;5.20;4.00;;;19.70;54.10;;;19.97;46.57;97571.69;5026305;28;20064;-37
2022/05/16 04:53:41;;;;;;;4.63;3.47;;;19.70;54.10;;;19.97;46.60;97577.09;5027273;28;20045;-37
2022/05/16 04:56:09;;;;;;;5.22;3.42;;;19.70;53.90;;;19.98;46.39;97578.72;5027521;28;20079;-37
2022/05/16 04:58:37;;;;;;;3.80;3.40;;;19.80;53.80;;;19.98;46.39;97579.53;5026484;28;20054;-37
2022/05/16 05:01:05;;;;;;;5.75;3.38;;;19.80;53.60;;;20.02;46.30;97582.63;5031469;28;20071;-37
2022/05/16 05:03:33;;;;;;;5.18;3.38;;;19.90;53.30;;;20.04;46.50;97577.81;5030333;28;20057;-37
2022/05/16 05:06:01;;;;;;;4.28;3.83;;;19.90;53.50;;;20.06;46.20;97584.66;5031467;28;20060;-37
2022/05/16 05:08:29;;;;;;;5.82;3.60;;;19.90;53.00;;;20.09;46.11;97590.69;5030844;28;20355;-37
2022/05/16 05:16:30;;;;;;;5.57;3.72;;;20.00;53.00;;;20.20;46.08;97579.09;5029912;28;20047;-37
2022/05/16 05:18:58;;;;;;;4.05;3.13;;;20.10;52.80;;;20.21;45.87;97572.66;5030015;28;20049;-37
2022/05/16 05:21:27;;;;;;;5.00;3.28;;;20.10;52.40;;;20.21;45.85;97578.06;5028339;28;20533;-37
2022/05/16 05:24:00;;;;;;;4.78;3.50;;;20.20;52.20;;;20.22;45.88;97575.16;5029357;28;20057;-37
2022/05/16 05:26:28;;;;;;;6.93;4.30;;;20.20;52.30;;;20.25;45.82;97573.84;5029205;28;20263;-37
2022/05/16 05:28:56;;;;;;;3.40;3.10;;;20.30;52.20;;;20.22;46.20;97571.59;5028132;28;20501;-37
2022/05/16 05:31:25;;;;;;;4.95;3.67;;;20.20;52.30;;;20.23;46.07;97581.38;5028630;28;20049;-37
2022/05/16 05:33:55;;;;;;;5.38;2.92;;;20.20;52.40;;;20.24;46.12;97580.34;5012526;28;20071;-37
2022/05/16 05:36:25;;;;;;;3.33;3.03;;;20.20;52.50;;;20.23;45.93;97587.59;5010420;28;20369;-37
2022/05/16 05:38:53;;;;;;;5.07;3.17;;;20.20;52.30;;;20.31;45.86;97591.88;5010647;28;20059;-37
2022/05/16 05:41:23;;;;;;;4.93;3.10;;;20.30;52.50;;;20.36;45.72;97596.63;5008806;28;20054;-37
2022/05/16 05:43:50;;;;;;;3.63;3.33;;;20.30;52.20;;;20.41;46.19;97607.56;5010054;28;20046;-38
2022/05/16 05:46:19;;;;;;;5.50;3.47;;;20.30;52.80;;;20.36;46.12;97600.16;5010571;28;20101;-38
2022/05/16 05:48:47;;;;;;;5.55;3.40;;;20.20;53.20;;;20.38;45.85;97603.44;5009401;28;20057;-38
2022/05/16 05:51:15;;;;;;;4.53;3.20;;;20.20;53.10;;;20.41;46.03;97608.41;5008664;28;20052;-38
2022/05/16 05:53:43;;;;;;;7.35;3.50;;;20.20;53.20;;;20.43;46.20;97611.72;5009647;28;20374;-38
2022/05/16 05:56:13;;;;;;;5.68;3.75;;;20.30;53.30;;;20.46;46.21;97613.16;5008332;28;20046;-38
2022/05/16 05:58:42;;;;;;;5.28;4.32;;;20.30;53.20;;;20.46;45.85;97613.97;5008732;28;20056;-38
2022/05/16 06:01:10;;;;;;;3.80;3.30;;;20.40;52.80;;;20.51;45.88;97615.16;5010795;28;20053;-38
2022/05/16 06:03:39;;;;;;;4.78;3.80;;;20.40;52.80;;;20.53;46.01;97622.00;5009493;28;20063;-38
2022/05/16 06:06:07;;;;;;;5.90;3.88;;;20.50;53.00;;;20.52;46.40;97625.75;5010714;28;20064;-37
2022/05/16 06:08:35;;;;;;;4.47;3.53;;;20.40;53.30;;;20.53;46.59;97616.59;5009223;28;20060;-37
2022/05/16 06:11:53;;;;;;;5.25;3.85;;;20.40;53.70;;;20.55;46.58;97625.31;5009362;28;20068;-37
2022/05/16 06:14:21;;;;;;;4.35;3.95;;;20.50;55.10;;;20.65;47.25;97630.22;5009904;28;20045;-37
2022/05/16 06:16:49;;;;;;;7.22;3.92;;;20.60;54.90;;;20.75;46.98;97618.88;5008982;28;20060;-37
2022/05/16 06:19:17;;;;;;;7.03;4.13;;;20.70;54.00;;;20.79;47.39;97620.06;5009206;28;20352;-37
2022/05/16 06:21:45;;;;;;;7.88;3.85;;;20.90;53.70;;;20.88;46.99;97618.72;5008012;28;20259;-37
2022/05/16 06:27:00;;;;;;;4.88;3.80;;;21.10;52.90;;;21.05;46.98;97624.28;5008246;28;20061;-37
2022/05/16 06:29:27;;;;;;;6.60;4.40;;;21.30;52.90;;;21.16;46.95;97623.53;5006288;28;20068;-37
2022/05/16 06:31:55;;;;;;;4.22;3.50;;;21.40;52.90;;;21.27;47.07;97634.63;5007601;28;20064;-37
2022/05/16 06:34:23;;;;;;;4.07;3.65;;;21.60;53.00;;;21.35;47.13;97629.72;5009441;28;20056;-37
2022/05/16 06:36:51;;;;;;;6.30;4.03;;;21.60;52.60;;;21.42;47.01;97635.88;5009356;28;20057;-37
2022/05/16 06:39:19;;;;;;;12.38;4.35;;;21.70;52.90;;;21.53;47.09;97642.38;5008978;28;20045;-36
2022/05/16 06:41:49;;;;;;;6.05;3.67;;;21.80;53.00;;;21.62;46.85;97638.28;5007247;28;20050;-36
2022/05/16 06:44:19;;;;;;;5.63;4.30;;;21.90;52.80;;;21.69;46.41;97643.59;5006397;28;20053;-36
2022/05/16 06:46:47;;;;;;;6.97;3.67;;;22.00;52.50;;;21.75;46.88;97649.97;5009116;28;20233;-37
2022/05/16 06:49:15;;;;;;;4.82;4.00;;;22.00;52.50;;;21.78;46.89;97650.34;5008566;28;20225;-38
2022/05/16 06:51:43;;;;;;;4.85;3.42;;;22.10;52.80;;;21.83;46.87;97653.19;5008132;28;20080;-37
2022/05/16 06:54:10;;;;;;;6.35;3.88;;;22.10;52.90;;;21.88;46.95;97648.94;5008543;28;20058;-37
2022/05/16 06:56:38;;;;;;;5.50;3.38;;;22.10;52.70;;;21.88;47.01;97652.47;5008711;28;20048;-37
2022/05/16 06:59:06;;;;;;;5.63;3.40;;;22.10;52.70;;;21.91;46.45;97651.19;5008794;28;20060;-37
2022/05/16 07:01:34;;;;;;;5.65;3.35;;;22.10;52.50;;;21.94;46.76;97654.25;5008488;28;20064;-37
2022/05/16 07:04:03;;;;;;;5.88;3.60;;;22.20;52.50;;;22.00;46.71;97657.91;5008086;28;20056;-37
2022/05/16 07:06:31;;;;;;;3.83;3.15;;;22.20;52.60;;;22.03;46.71;97655.56;5007016;28;20065;-37
2022/05/16 07:08:59;;;;;;;4.07;3.42;;;22.30;52.70;;;22.11;46.60;97672.53;5008422;28;20069;-37
2022/05/16 07:11:27;;;;;;;5.38;3.20;;;22.30;52.40;;;22.12;46.15;97666.88;5007977;28;20315;-37
2022/05/16 07:13:56;;;;;;;3.92;3.30;;;22.40;52.00;;;22.16;46.00;97661.81;5007117;28;20068;-37
2022/05/16 07:16:24;;;;;;;6.88;3.28;;;22.40;51.80;;;22.16;46.18;97664.53;5009237;28;20069;-37
2022/05/16 07:18:52;;;;;;;3.92;3.53;;;22.40;52.90;;;22.22;46.33;97667.13;5007102;28;20237;-37
2022/05/16 07:21:19;;;;;;;5.25;3.90;;;22.40;52.00;;;22.28;45.91;97673.53;5008455;28;20048;-38
2022/05/16 07:23:47;;;;;;;6.47;3.50;;;22.50;52.10;;;22.32;45.97;97663.03;5006960;28;20054;-38
2022/05/16 07:29:03;;;;;;;5.50;3.47;;;22.60;52.10;;;22.40;46.21;97673.50;5008043;28;20251;-38
2022/05/16 07:31:31;;;;;;;4.45;3.40;;;22.60;52.00;;;22.40;45.97;97673.50;5007757;28;20062;-37
2022/05/16 07:34:00;;;;;;;8.00;4.10;;;22.60;52.10;;;22.40;46.13;97679.75;5007495;28;20056;-37
2022/05/16 07:36:28;;;;;;;6.63;4.18;;;22.60;52.40;;;22.39;46.60;97680.84;5008639;28;20056;-37
2022/05/16 07:38:56;;;;;;;5.15;4.50;;;22.60;52.70;;;22.36;46.34;97686.72;5005547;28;20064;-38
2022/05/16 07:41:24;;;;;;;5.60;4.30;;;22.50;52.90;;;22.36;46.46;97692.13;5006462;28;20056;-37
2022/05/16 07:43:51;;;;;;;7.55;3.88;;;22.40;53.20;;;22.37;47.05;97698.38;5006995;28;20049;-38
2022/05/16 07:46:19;;;;;;;6.88;4.57;;;22.40;53.50;;;22.38;46.57;97694.63;5008214;28;20049;-37
2022/05/16 07:48:47;;;;;;;4.40;3.90;;;22.40;53.30;;;22.36;46.79;97689.44;5008148;28;20050;-37
2022/05/16 07:51:15;;;;;;;8.55;4.40;;;22.50;53.10;;;22.41;47.19;97692.28;5008050;28;20397;-37
2022/05/16 07:53:43;;;;;;;6.85;4.32;;;22.50;53.50;;;22.50;47.00;97694.63;5007523;28;20386;-37
2022/05/16 07:56:11;;;;;;;7.07;4.03;;;22.70;53.40;;;22.61;47.07;97694.59;5007907;28;20236;-37
2022/05/16 07:58:39;;;;;;;4.47;3.90;;;22.90;53.20;;;22.71;46.70;97702.16;5006210;28;20045;-37
2022/05/16 08:01:06;;;;;;;5.68;4.13;;;23.00;52.90;;;22.79;47.05;97701.78;5031397;28;20046;-37
2022/05/16 08:03:34;;;;;;;4.93;4.53;;;23.10;52.90;;;22.90;46.57;97702.00;5037596;28;20048;-37
2022/05/16 08:06:02;;;;;;;4.28;3.80;;;23.20;52.50;;;22.99;46.30;97708.69;5030965;28;20562;-37
2022/05/16 08:11:16;;;;;;;5.35;3.30;;;23.40;52.50;;;23.13;46.33;97714.75;5033988;28;20255;-37
2022/05/16 08:13:44;;;;;;;5.18;3.80;;;23.40;52.40;;;23.14;46.89;97719.91;5035660;28;20049;-37
2022/05/16 08:16:12;;;;;;;5.43;3.70;;;23.40;52.60;;;23.13;46.80;97720.16;5035487;28;20239;-36
2022/05/16 08:18:41;;;;;;;5.40;3.83;;;23.50;53.30;;;23.23;46.00;97722.28;5030216;28;20045;-36
2022/05/16 08:21:10;;;;;;;5.63;3.88;;;23.50;52.10;;;23.20;46.59;97718.13;5026930;28;20046;-36
2022/05/16 08:23:39;;;;;;;4.63;3.80;;;23.50;52.50;;;23.25;46.22;97722.84;5027054;28;20090;-36
2022/05/16 08:26:07;;;;;;;8.05;4.05;;;23.50;51.70;;;23.23;46.45;97730.41;5026842;28;20057;-36
2022/05/16 08:28:36;;;;;;;6.00;4.00;;;23.50;52.60;;;23.26;46.03;97724.47;5026736;28;20052;-36
2022/05/16 08:31:04;;;;;;;5.70;4.40;;;23.50;52.00;;;23.34;45.91;97732.25;5026898;28;20045;-36
2022/05/16 08:33:34;;;;;;;5.03;4.53;;;23.70;51.70;;;23.43;45.89;97732.69;5025906;28;20048;-36
2022/05/16 08:41:58;;;;;;;6.95;4.57;;;23.90;52.10;;;23.51;46.63;97737.75;5025303;28;20056;-36
2022/05/16 08:44:57;;;;;;;5.10;4.38;;;23.90;52.50;;;23.50;46.82;97753.22;5027432;28;20063;-36
2022/05/16 08:47:45;;;;;;;5.63;4.45;;;23.90;53.90;;;23.55;46.46;97750.63;5023790;28;20099;-36
2022/05/16 08:50:39;;;;;;;6.35;4.40;;;23.80;53.00;;;23.56;45.94;97748.72;5026192;28;20049;-36
2022/05/16 08:53:33;;;;;;;6.32;4.43;;;23.80;51.80;;;23.57;45.24;97750.34;5025048;28;20053;-36
2022/05/16 08:56:07;;;;;;;5.53;4.65;;;23.90;50.70;;;23.68;45.54;97754.09;5024113;28;20064;-35
2022/05/16 08:58:52;;;;;;;5.38;4.40;;;24.00;50.90;;;23.71;44.25;97757.16;5025729;28;20054;-35
2022/05/16 09:01:49;;;;;;;5.47;4.25;;;24.10;49.10;;;23.77;43.72;97748.03;5024204;28;20068;-35
2022/05/16 09:04:24;;;;;;;7.15;4.43;;;24.10;48.00;;;23.83;44.38;97746.25;5025382;28;20054;-35
2022/05/16 09:07:19;;;;;;;5.32;4.00;;;24.20;49.50;;;23.73;45.12;97757.75;5025688;28;20050;-37
2022/05/16 09:10:08;;;;;;;5.32;4.80;;;24.10;51.10;;;23.84;45.69;97761.50;5026124;28;20045;-37
2022/05/16 09:13:00;;;;;;;7.15;4.63;;;24.10;51.40;;;23.74;46.03;97764.81;5025456;28;20057;-37
2022/05/16 09:16:09;;;;;;;5.03;4.53;;;24.00;52.40;;;23.81;46.91;97778.31;5027430;28;20041;-37
2022/05/16 09:18:58;;;;;;;5.35;4.63;;;24.10;52.80;;;23.68;47.10;97773.13;5026505;28;20060;-37
2022/05/16 09:22:01;;;;;;;7.38;4.47;;;23.80;53.60;;;23.52;47.36;97780.97;5026122;28;20053;-37
2022/05/16 09:24:45;;;;;;;5.47;4.68;;;23.80;53.70;;;23.55;47.17;97790.53;5027388;28;20067;-37
2022/05/16 09:30:26;;;;;;;5.80;4.57;;;23.60;53.80;;;23.56;46.72;97784.84;5022438;28;20065;-37
2022/05/16 09:33:06;;;;;;;6.63;4.85;;;23.70;53.40;;;23.64;46.54;97794.53;5025384;28;20248;-37
2022/05/16 09:35:54;;;;;;;4.97;4.43;;;23.80;53.30;;;23.56;46.32;97794.91;5024735;28;20060;-37
2022/05/16 09:38:22;;;;;;;8.43;4.88;;;23.80;52.50;;;23.73;46.73;97790.34;5025993;28;20071;-37
2022/05/16 09:40:59;;;;;;;9.73;4.60;;;24.00;52.90;;;23.86;46.61;97794.69;5026060;28;20053;-37
2022/05/16 09:43:37;;;;;;;5.07;4.47;;;24.20;52.70;;;23.95;45.90;97798.69;5024802;28;20041;-38
2022/05/16 09:46:23;;;;;;;5.32;4.82;;;24.30;52.00;;;23.96;45.20;97802.22;5026324;28;20055;-38
2022/05/16 09:49:11;;;;;;;8.52;5.78;;;24.30;50.30;;;23.92;45.48;97807.34;5028788;28;20081;-38
2022/05/16 09:51:48;;;;;;;17.67;5.15;;;24.30;51.50;;;23.74;44.64;97807.47;5029509;28;20385;-38
2022/05/16 09:54:36;;;;;;;7.38;4.63;;;24.00;50.20;;;23.82;44.54;97809.84;5028540;28;20060;-38
2022/05/16 09:57:13;;;;;;;5.50;5.00;;;24.00;50.30;;;23.83;44.10;97805.25;5029110;28;20059;-37
2022/05/16 09:59:55;;;;;;;5.35;4.82;;;24.10;49.40;;;23.82;43.98;97814.47;5028657;28;20053;-37
2022/05/16 10:02:38;;;;;;;8.77;4.70;;;24.10;48.90;;;23.78;43.42;97824.97;5030220;28;20234;-37
2022/05/16 10:05:31;;;;;;;7.78;5.35;;;24.10;48.30;;;23.78;42.94;97820.38;5028384;28;20053;-37
2022/05/16 10:08:11;;;;;;;4.47;3.83;;;24.10;48.60;;;23.72;43.10;97824.03;5029396;28;20053;-37
2022/05/16 10:10:42;;;;;;;8.73;4.50;;;24.00;48.10;;;23.85;43.67;97822.13;5029436;28;20053;-37
2022/05/16 10:13:11;;;;;;;6.30;3.90;;;24.20;48.40;;;23.89;42.87;97815.97;5027906;28;20049;-37
2022/05/16 10:15:39;;;;;;;5.72;3.78;;;24.30;47.40;;;24.04;42.20;97823.59;5029437;28;20053;-37
2022/05/16 10:18:13;;;;;;;6.97;4.40;;;24.50;46.90;;;24.13;42.60;97816.66;5027515;28;20037;-38
2022/05/16 10:20:47;;;;;;;5.10;3.97;;;24.60;47.00;;;24.01;42.47;97823.25;5028012;28;20064;-37
2022/05/16 10:23:30;;;;;;;7.68;3.42;;;24.60;47.00;;;23.91;42.88;97827.41;5028332;28;20084;-37
2022/05/16 10:26:06;;;;;;;8.20;4.80;;;24.40;47.20;;;24.09;42.78;97848.13;5029456;28;20059;-38
2022/05/16 10:28:46;;;;;;;6.40;3.28;;;24.60;47.20;;;23.85;42.33;97830.28;5029518;28;20053;-38
2022/05/16 10:34:57;;;;;;;6.55;3.75;;;24.60;46.70;;;24.11;42.30;97837.84;5028533;28;20055;-38
2022/05/16 10:37:27;;;;;;;4.72;3.35;;;24.60;47.20;;;23.99;42.46;97839.81;5028024;28;20075;-38
2022/05/16 10:40:15;;;;;;;7.43;3.53;;;24.40;46.90;;;24.07;42.29;97833.16;5028090;28;20465;-37
2022/05/16 10:43:25;;;;;;;6.35;3.90;;;24.30;47.10;;;24.08;42.06;97827.47;5027438;28;20247;-38
2022/05/16 10:46:04;;;;;;;5.50;3.08;;;24.40;46.60;;;24.11;42.17;97824.25;5026982;28;20094;-38
2022/05/16 10:48:50;;;;;;;5.65;3.40;;;24.50;46.90;;;24.23;42.36;97828.81;5027770;28;20243;-38
2022/05/16 10:51:49;;;;;;;6.93;2.95;;;24.60;47.20;;;24.15;42.36;97832.75;5026665;28;20076;-37
2022/05/16 10:54:29;;;;;;;5.55;2.50;;;24.40;47.10;;;24.06;42.66;97829.59;5010912;28;20714;-37
2022/05/16 10:57:16;;;;;;;4.18;2.88;;;24.40;47.40;;;24.03;42.63;97840.16;5007324;28;20371;-38
2022/05/16 10:59:59;;;;;;;5.53;3.50;;;24.50;47.60;;;24.09;42.74;97833.72;5010750;28;20155;-38
2022/05/16 11:02:46;;;;;;;7.82;3.85;;;24.50;47.20;;;24.15;42.59;97841.72;5018620;28;20038;-38
2022/05/16 11:05:59;;;;;;;4.88;3.10;;;24.40;47.50;;;24.10;42.41;97846.28;5019013;28;20370;-38
2022/05/16 11:09:09;;;;;;;4.88;3.42;;;24.30;47.80;;;23.60;43.41;97845.00;5023922;28;20263;-38
2022/05/16 11:11:57;;;;;;;7.97;3.47;;;23.80;48.80;;;23.49;43.82;97848.56;5025804;28;20059;-38
2022/05/16 11:14:46;;;;;;;4.40;3.33;;;23.60;49.90;;;23.24;44.76;97838.78;5025960;28;20057;-38
2022/05/16 11:17:52;;;;;;;8.90;3.58;;;23.50;50.70;;;23.23;44.79;97845.28;5011915;28;20061;-38
2022/05/16 11:20:43;;;;;;;5.18;3.70;;;23.50;50.40;;;23.44;44.03;97856.59;5010523;28;20068;-37
2022/05/16 11:23:35;;;;;;;4.05;2.63;;;23.70;49.70;;;23.63;43.60;97852.63;5018315;28;20048;-38
2022/05/16 11:26:20;;;;;;;6.50;3.17;;;23.90;49.10;;;23.63;43.70;97860.78;5010532;28;20045;-38